createdAt,value
2019-03-24T00:00:45.434Z,58.51
2019-03-24T00:03:15.082Z,58.03
2019-03-24T00:05:44.765Z,58.52
2019-03-24T00:08:14.404Z,58.47
2019-03-24T00:10:44.093Z,58.95
2019-03-24T00:13:13.740Z,60.00
2019-03-24T00:15:43.360Z,60.32
2019-03-24T00:18:13.004Z,59.29
2019-03-24T00:20:42.618Z,59.11
2019-03-24T00:23:12.267Z,60.00
2019-03-24T00:25:41.886Z,59.46
2019-03-24T00:28:11.597Z,59.93
2019-03-24T00:30:41.217Z,59.69
2019-03-24T00:33:10.877Z,60.00
2019-03-24T00:35:40.493Z,59.91
2019-03-24T00:38:10.183Z,60.32
2019-03-24T00:40:39.834Z,60.37
2019-03-24T00:43:09.450Z,61.07
2019-03-24T00:45:39.097Z,60.19
2019-03-24T00:48:08.714Z,60.58
2019-03-24T00:50:38.351Z,60.89
2019-03-24T00:53:08.039Z,61.07
2019-03-24T00:55:37.753Z,60.61
2019-03-24T00:58:07.370Z,60.38
2019-03-24T01:00:51.807Z,60.23
2019-03-24T01:03:21.567Z,60.70
2019-03-24T01:05:51.290Z,60.74
2019-03-24T01:08:20.979Z,61.53
2019-03-24T01:10:50.594Z,61.90
2019-03-24T01:13:20.311Z,61.16
2019-03-24T01:15:50.001Z,61.39
2019-03-24T01:18:19.647Z,62.16
2019-03-24T01:20:49.271Z,62.37
2019-03-24T01:23:18.989Z,62.75
2019-03-24T01:25:48.605Z,61.82
2019-03-24T01:28:18.322Z,61.52
2019-03-24T01:30:47.941Z,61.89
2019-03-24T01:33:17.561Z,61.87
2019-03-24T01:35:47.201Z,61.22
2019-03-24T01:38:16.821Z,60.94
2019-03-24T01:40:46.466Z,61.74
2019-03-24T01:43:16.159Z,62.37
2019-03-24T01:45:45.800Z,61.23
2019-03-24T01:48:15.412Z,61.91
2019-03-24T01:50:45.057Z,61.53
2019-03-24T01:53:14.676Z,60.89
2019-03-24T01:55:44.391Z,62.05
2019-03-24T01:58:14.003Z,61.77
2019-03-24T02:00:43.653Z,61.11
2019-03-24T02:03:13.338Z,61.11
2019-03-24T02:05:42.956Z,61.71
2019-03-24T02:08:12.602Z,61.39
2019-03-24T02:10:42.288Z,61.93
2019-03-24T02:13:12.005Z,61.95
2019-03-24T02:15:41.712Z,61.37
2019-03-24T02:18:11.335Z,60.59
2019-03-24T02:20:41.027Z,60.89
2019-03-24T02:23:10.673Z,61.01
2019-03-24T02:25:40.290Z,60.08
2019-03-24T02:28:10.021Z,60.62
2019-03-24T02:30:39.643Z,61.65
2019-03-24T02:33:09.257Z,61.89
2019-03-24T02:35:38.908Z,62.48
2019-03-24T02:38:08.591Z,62.47
2019-03-24T02:40:38.240Z,63.01
2019-03-24T02:43:07.859Z,62.76
2019-03-24T02:45:37.505Z,63.68
2019-03-24T02:48:07.199Z,63.22
2019-03-24T02:50:36.841Z,61.92
2019-03-24T02:53:06.455Z,61.91
2019-03-24T02:55:36.122Z,62.31
2019-03-24T02:58:05.807Z,62.33
2019-03-24T03:00:35.631Z,62.41
2019-03-24T03:03:05.351Z,61.84
2019-03-24T03:05:35.045Z,61.86
2019-03-24T03:08:04.823Z,62.28
2019-03-24T03:10:36.086Z,61.74
2019-03-24T03:13:05.737Z,62.68
2019-03-24T03:15:35.366Z,63.35
2019-03-24T03:18:05.147Z,63.75
2019-03-24T03:20:34.826Z,63.79
2019-03-24T03:23:04.554Z,63.09
2019-03-24T03:25:34.180Z,61.33
2019-03-24T03:28:03.815Z,62.11
2019-03-24T03:30:33.440Z,62.05
2019-03-24T03:33:03.069Z,62.41
2019-03-24T03:35:32.709Z,61.46
2019-03-24T03:38:02.341Z,61.83
2019-03-24T03:40:31.974Z,62.01
2019-03-24T03:43:01.603Z,61.57
2019-03-24T03:45:31.446Z,61.80
2019-03-24T03:48:01.079Z,61.17
2019-03-24T03:50:30.863Z,61.37
2019-03-24T03:53:00.557Z,61.35
2019-03-24T03:55:30.200Z,60.52
2019-03-24T03:57:59.834Z,60.83
2019-03-24T04:00:37.872Z,61.30
2019-03-24T04:03:08.105Z,61.05
2019-03-24T04:05:37.745Z,61.72
2019-03-24T04:08:07.935Z,62.65
2019-03-24T04:10:37.583Z,62.47
2019-03-24T04:13:07.279Z,62.92
2019-03-24T04:15:36.943Z,62.77
2019-03-24T04:18:06.557Z,64.23
2019-03-24T04:20:36.256Z,63.06
2019-03-24T04:23:05.975Z,63.64
2019-03-24T04:25:35.597Z,63.92
2019-03-24T04:28:05.385Z,63.65
2019-03-24T04:30:35.016Z,62.62
2019-03-24T04:33:04.669Z,63.34
2019-03-24T04:35:34.277Z,62.52
2019-03-24T04:38:03.942Z,62.11
2019-03-24T04:40:33.548Z,62.66
2019-03-24T04:43:03.197Z,63.32
2019-03-24T04:45:32.826Z,62.92
2019-03-24T04:48:03.357Z,62.79
2019-03-24T04:50:32.974Z,63.39
2019-03-24T04:53:02.599Z,63.42
2019-03-24T04:55:32.311Z,63.82
2019-03-24T04:58:01.932Z,61.81
2019-03-24T05:00:37.285Z,62.56
2019-03-24T05:03:06.964Z,62.85
2019-03-24T05:05:37.537Z,63.79
2019-03-24T05:08:07.501Z,63.56
2019-03-24T05:10:37.143Z,62.81
2019-03-24T05:13:06.771Z,62.33
2019-03-24T05:15:36.416Z,62.26
2019-03-24T05:18:06.176Z,63.32
2019-03-24T05:20:35.819Z,63.71
2019-03-24T05:23:05.446Z,64.86
2019-03-24T05:25:35.089Z,64.67
2019-03-24T05:28:04.788Z,64.64
2019-03-24T05:30:34.439Z,65.41
2019-03-24T05:33:04.060Z,65.02
2019-03-24T05:35:33.687Z,65.53
2019-03-24T05:38:03.325Z,65.41
2019-03-24T05:40:32.948Z,64.39
2019-03-24T05:43:02.601Z,64.60
2019-03-24T05:45:32.219Z,64.91
2019-03-24T05:48:01.867Z,64.55
2019-03-24T05:50:31.487Z,64.68
2019-03-24T05:53:01.143Z,65.27
2019-03-24T05:55:30.830Z,65.08
2019-03-24T05:58:00.475Z,65.62
2019-03-24T06:00:30.093Z,66.67
2019-03-24T06:02:59.748Z,67.19
2019-03-24T06:05:29.453Z,66.84
2019-03-24T06:07:59.120Z,67.70
2019-03-24T06:10:28.743Z,68.25
2019-03-24T06:12:58.368Z,67.59
2019-03-24T06:15:28.009Z,67.15
2019-03-24T06:17:57.632Z,67.74
2019-03-24T06:20:27.273Z,67.37
2019-03-24T06:22:56.885Z,67.03
2019-03-24T06:25:26.527Z,66.57
2019-03-24T06:27:56.214Z,66.52
2019-03-24T06:30:25.865Z,66.27
2019-03-24T06:32:55.480Z,67.74
2019-03-24T06:35:25.142Z,67.64
2019-03-24T06:37:54.768Z,67.20
2019-03-24T06:40:24.385Z,67.60
2019-03-24T06:42:54.033Z,67.72
2019-03-24T06:45:28.514Z,67.72
2019-03-24T06:47:58.153Z,67.38
2019-03-24T06:50:26.378Z,67.56
2019-03-24T06:52:56.008Z,67.28
2019-03-24T06:55:25.637Z,67.09
2019-03-24T06:57:55.294Z,67.36
2019-03-24T07:00:24.922Z,67.15
2019-03-24T07:02:54.649Z,66.98
2019-03-24T07:05:24.264Z,67.10
2019-03-24T07:07:53.895Z,66.82
2019-03-24T07:10:23.544Z,66.69
2019-03-24T07:12:53.164Z,67.35
2019-03-24T07:15:22.817Z,66.95
2019-03-24T07:17:52.444Z,66.89
2019-03-24T07:20:22.086Z,66.68
2019-03-24T07:22:51.715Z,66.51
2019-03-24T07:25:21.432Z,66.77
2019-03-24T07:27:51.156Z,66.72
2019-03-24T07:30:21.133Z,66.69
2019-03-24T07:32:50.755Z,66.33
2019-03-24T07:35:20.377Z,65.93
2019-03-24T07:37:50.016Z,65.99
2019-03-24T07:40:19.777Z,65.93
2019-03-24T07:42:49.420Z,65.97
2019-03-24T07:45:19.118Z,66.04
2019-03-24T07:47:49.157Z,65.86
2019-03-24T07:50:19.012Z,65.97
2019-03-24T07:52:48.652Z,65.91
2019-03-24T07:55:18.270Z,65.92
2019-03-24T07:57:47.916Z,66.00
2019-03-24T08:00:22.124Z,65.66
2019-03-24T08:02:52.002Z,66.16
2019-03-24T08:05:21.658Z,65.88
2019-03-24T08:07:51.284Z,66.30
2019-03-24T08:10:20.933Z,66.32
2019-03-24T08:12:52.304Z,66.19
2019-03-24T08:15:22.094Z,66.78
2019-03-24T08:17:51.718Z,65.94
2019-03-24T08:20:21.362Z,66.25
2019-03-24T08:22:50.982Z,67.15
2019-03-24T08:25:20.628Z,67.30
2019-03-24T08:27:50.254Z,66.69
2019-03-24T08:30:33.162Z,66.25
2019-03-24T08:33:02.864Z,67.15
2019-03-24T08:35:32.555Z,66.94
2019-03-24T08:38:02.193Z,67.26
2019-03-24T08:40:31.983Z,67.25
2019-03-24T08:43:01.632Z,67.77
2019-03-24T08:45:32.152Z,67.09
2019-03-24T08:48:01.879Z,67.59
2019-03-24T08:50:31.493Z,66.76
2019-03-24T08:53:01.144Z,66.21
2019-03-24T08:55:30.767Z,66.90
2019-03-24T08:58:00.419Z,66.98
2019-03-24T09:00:31.058Z,66.34
2019-03-24T09:03:00.831Z,66.57
2019-03-24T09:05:30.454Z,66.79
2019-03-24T09:08:00.081Z,66.70
2019-03-24T09:10:29.794Z,65.45
2019-03-24T09:12:59.414Z,65.99
2019-03-24T09:15:29.065Z,66.39
2019-03-24T09:17:58.684Z,65.95
2019-03-24T09:20:28.329Z,65.47
2019-03-24T09:22:57.953Z,65.46
2019-03-24T09:25:27.656Z,64.45
2019-03-24T09:27:57.300Z,64.44
2019-03-24T09:30:38.036Z,64.80
2019-03-24T09:33:07.796Z,64.99
2019-03-24T09:35:38.280Z,64.69
2019-03-24T09:38:08.237Z,64.10
2019-03-24T09:40:38.109Z,64.28
2019-03-24T09:43:07.930Z,64.28
2019-03-24T09:45:37.843Z,63.78
2019-03-24T09:48:07.883Z,63.31
2019-03-24T09:50:37.826Z,63.42
2019-03-24T09:53:07.628Z,63.18
2019-03-24T09:55:37.261Z,63.04
2019-03-24T09:58:07.053Z,63.38
2019-03-24T10:00:36.760Z,62.97
2019-03-24T10:03:06.556Z,61.85
2019-03-24T10:05:36.190Z,62.19
2019-03-24T10:08:05.910Z,62.03
2019-03-24T10:10:35.544Z,61.59
2019-03-24T10:13:05.202Z,61.20
2019-03-24T10:15:34.885Z,61.38
2019-03-24T10:18:04.686Z,60.66
2019-03-24T10:20:34.304Z,59.40
2019-03-24T10:23:03.959Z,59.12
2019-03-24T10:25:33.600Z,59.23
2019-03-24T10:28:03.222Z,59.23
2019-03-24T10:30:32.871Z,57.96
2019-03-24T10:33:03.745Z,57.57
2019-03-24T10:35:33.407Z,58.13
2019-03-24T10:38:03.025Z,56.62
2019-03-24T10:40:32.762Z,56.20
2019-03-24T10:43:02.382Z,55.35
2019-03-24T10:45:32.103Z,55.74
2019-03-24T10:48:01.739Z,57.04
2019-03-24T10:50:31.434Z,56.14
2019-03-24T10:53:01.095Z,55.97
2019-03-24T10:55:30.755Z,54.93
2019-03-24T10:58:00.377Z,54.55
2019-03-24T11:00:39.461Z,54.60
2019-03-24T11:03:09.258Z,53.41
2019-03-24T11:05:38.936Z,52.95
2019-03-24T11:08:08.707Z,52.84
2019-03-24T11:10:38.637Z,52.87
2019-03-24T11:13:08.325Z,53.07
2019-03-24T11:15:38.096Z,53.00
2019-03-24T11:18:07.883Z,52.17
2019-03-24T11:20:37.523Z,51.80
2019-03-24T11:23:07.179Z,51.57
2019-03-24T11:25:36.804Z,51.34
2019-03-24T11:28:06.605Z,50.88
2019-03-24T11:30:36.372Z,50.36
2019-03-24T11:33:06.162Z,50.20
2019-03-24T11:35:35.791Z,49.58
2019-03-24T11:38:05.419Z,49.59
2019-03-24T11:40:35.068Z,49.60
2019-03-24T11:43:04.840Z,48.82
2019-03-24T11:45:34.570Z,49.95
2019-03-24T11:48:04.366Z,49.03
2019-03-24T11:50:34.094Z,50.32
2019-03-24T11:53:03.731Z,50.06
2019-03-24T11:55:33.384Z,50.05
2019-03-24T11:58:06.081Z,51.59
2019-03-24T12:00:37.363Z,51.47
2019-03-24T12:03:07.243Z,51.80
2019-03-24T12:05:36.964Z,50.88
2019-03-24T12:08:06.803Z,50.78
2019-03-24T12:10:36.547Z,50.77
2019-03-24T12:13:06.176Z,52.27
2019-03-24T12:15:36.046Z,50.54
2019-03-24T12:18:05.838Z,51.65
2019-03-24T12:20:35.538Z,50.28
2019-03-24T12:23:05.260Z,50.93
2019-03-24T12:25:34.879Z,50.59
2019-03-24T12:28:04.605Z,50.43
2019-03-24T12:30:34.231Z,49.69
2019-03-24T12:33:03.955Z,49.00
2019-03-24T12:35:33.584Z,48.27
2019-03-24T12:38:03.651Z,47.40
2019-03-24T12:40:33.291Z,47.78
2019-03-24T12:43:02.921Z,46.21
2019-03-24T12:45:33.718Z,47.41
2019-03-24T12:48:03.584Z,47.15
2019-03-24T12:50:33.250Z,47.19
2019-03-24T12:53:02.949Z,47.83
2019-03-24T12:55:32.617Z,47.02
2019-03-24T12:58:02.238Z,45.24
2019-03-24T13:00:38.074Z,45.80
2019-03-24T13:03:07.918Z,45.81
2019-03-24T13:05:37.809Z,45.29
2019-03-24T13:08:15.869Z,44.58
2019-03-24T13:10:46.848Z,43.49
2019-03-24T13:13:16.549Z,43.07
2019-03-24T13:15:46.320Z,42.94
2019-03-24T13:18:15.988Z,42.77
2019-03-24T13:20:45.685Z,42.84
2019-03-24T13:23:15.354Z,42.60
2019-03-24T13:25:44.986Z,41.93
2019-03-24T13:28:14.645Z,43.15
2019-03-24T13:30:44.278Z,42.87
2019-03-24T13:33:13.942Z,42.36
2019-03-24T13:35:43.593Z,41.99
2019-03-24T13:38:13.255Z,40.65
2019-03-24T13:40:42.888Z,40.53
2019-03-24T13:43:12.517Z,39.88
2019-03-24T13:45:42.169Z,38.95
2019-03-24T13:48:11.864Z,38.21
2019-03-24T13:50:41.513Z,38.12
2019-03-24T13:53:11.216Z,37.74
2019-03-24T13:55:52.492Z,38.61
2019-03-24T13:58:22.135Z,39.08
2019-03-24T14:00:51.770Z,39.78
2019-03-24T14:03:21.410Z,39.63
2019-03-24T14:05:51.059Z,39.06
2019-03-24T14:08:20.760Z,39.31
2019-03-24T14:10:50.420Z,39.38
2019-03-24T14:13:20.058Z,39.73
2019-03-24T14:15:49.859Z,39.77
2019-03-24T14:18:19.484Z,39.75
2019-03-24T14:20:49.143Z,39.32
2019-03-24T14:23:18.785Z,38.94
2019-03-24T14:25:48.659Z,38.57
2019-03-24T14:28:18.293Z,38.64
2019-03-24T14:30:49.934Z,38.81
2019-03-24T14:33:19.699Z,38.58
2019-03-24T14:35:49.439Z,37.94
2019-03-24T14:38:19.235Z,37.84
2019-03-24T14:40:48.937Z,38.26
2019-03-24T14:43:18.926Z,38.18
2019-03-24T14:45:48.552Z,37.69
2019-03-24T14:48:18.280Z,37.21
2019-03-24T14:50:54.433Z,36.80
2019-03-24T14:53:19.296Z,36.14
2019-03-24T14:55:48.926Z,35.57
2019-03-24T14:58:18.581Z,35.68
2019-03-24T15:00:48.625Z,35.59
2019-03-24T15:03:22.182Z,35.51
2019-03-24T15:05:51.889Z,35.83
2019-03-24T15:08:21.547Z,36.19
2019-03-24T15:10:51.180Z,36.02
2019-03-24T15:13:20.851Z,36.15
2019-03-24T15:15:50.495Z,35.90
2019-03-24T15:18:20.196Z,35.85
2019-03-24T15:20:49.863Z,35.10
2019-03-24T15:23:19.489Z,34.49
2019-03-24T15:25:49.155Z,33.98
2019-03-24T15:28:18.791Z,33.83
2019-03-24T15:30:48.441Z,34.11
2019-03-24T15:33:18.079Z,34.14
2019-03-24T15:35:47.735Z,34.09
2019-03-24T15:38:17.366Z,34.10
2019-03-24T15:40:49.491Z,33.96
2019-03-24T15:43:18.385Z,33.81
2019-03-24T15:45:48.048Z,33.89
2019-03-24T15:48:17.680Z,33.54
2019-03-24T15:50:47.365Z,33.43
2019-03-24T15:53:16.996Z,33.15
2019-03-24T15:55:46.898Z,32.76
2019-03-24T15:58:16.557Z,33.00
2019-03-24T16:00:48.404Z,33.85
2019-03-24T16:03:18.298Z,32.97
2019-03-24T16:05:48.132Z,33.45
2019-03-24T16:08:17.879Z,33.38
2019-03-24T16:10:47.512Z,33.58
2019-03-24T16:13:17.164Z,33.91
2019-03-24T16:15:46.939Z,34.30
2019-03-24T16:18:16.617Z,34.64
2019-03-24T16:20:46.386Z,35.61
2019-03-24T16:23:16.020Z,35.78
2019-03-24T16:25:45.742Z,36.50
2019-03-24T16:28:15.372Z,37.09
2019-03-24T16:30:45.113Z,38.01
2019-03-24T16:33:14.812Z,38.89
2019-03-24T16:35:44.546Z,40.23
2019-03-24T16:38:14.188Z,41.73
2019-03-24T16:40:43.921Z,42.40
2019-03-24T16:43:13.557Z,43.31
2019-03-24T16:45:43.237Z,44.29
2019-03-24T16:48:12.962Z,44.40
2019-03-24T16:50:42.634Z,44.89
2019-03-24T16:53:12.342Z,45.11
2019-03-24T16:55:41.988Z,45.43
2019-03-24T16:58:11.633Z,45.65
2019-03-24T17:00:41.266Z,45.68
2019-03-24T17:03:10.927Z,46.16
2019-03-24T17:05:40.556Z,46.70
2019-03-24T17:08:10.298Z,46.62
2019-03-24T17:10:39.925Z,46.94
2019-03-24T17:13:09.579Z,47.14
2019-03-24T17:15:39.389Z,47.80
2019-03-24T17:18:09.187Z,48.27
2019-03-24T17:20:38.889Z,48.02
2019-03-24T17:23:08.542Z,49.04
2019-03-24T17:25:38.176Z,49.02
2019-03-24T17:28:07.851Z,49.30
2019-03-24T17:30:37.551Z,49.24
2019-03-24T17:33:07.318Z,49.99
2019-03-24T17:35:37.059Z,49.96
2019-03-24T17:38:06.813Z,49.87
2019-03-24T17:40:39.057Z,50.68
2019-03-24T17:43:08.073Z,50.79
2019-03-24T17:45:37.727Z,51.14
2019-03-24T17:48:07.412Z,51.73
2019-03-24T17:50:37.065Z,51.92
2019-03-24T17:53:07.062Z,51.95
2019-03-24T17:55:36.821Z,52.05
2019-03-24T17:58:06.803Z,52.11
2019-03-24T18:00:47.097Z,52.50
2019-03-24T18:03:16.797Z,52.79
2019-03-24T18:05:46.634Z,53.22
2019-03-24T18:08:16.287Z,53.37
2019-03-24T18:10:45.913Z,53.51
2019-03-24T18:13:15.637Z,53.54
2019-03-24T18:15:45.265Z,53.73
2019-03-24T18:18:14.922Z,53.80
2019-03-24T18:20:44.625Z,53.82
2019-03-24T18:23:14.291Z,53.99
2019-03-24T18:25:43.907Z,54.47
2019-03-24T18:28:13.577Z,54.16
2019-03-24T18:30:43.216Z,54.11
2019-03-24T18:33:12.864Z,54.53
2019-03-24T18:35:42.503Z,54.60
2019-03-24T18:38:12.200Z,55.01
2019-03-24T18:40:41.868Z,55.01
2019-03-24T18:43:11.492Z,54.58
2019-03-24T18:45:41.143Z,54.63
2019-03-24T18:48:10.859Z,54.60
2019-03-24T18:50:40.506Z,55.64
2019-03-24T18:53:10.145Z,55.29
2019-03-24T18:55:39.802Z,55.53
2019-03-24T18:58:09.434Z,55.47
2019-03-24T19:00:39.093Z,55.59
2019-03-24T19:03:08.795Z,55.67
2019-03-24T19:05:38.459Z,56.10
2019-03-24T19:08:08.302Z,55.87
2019-03-24T19:10:37.928Z,55.64
2019-03-24T19:13:07.730Z,55.88
2019-03-24T19:15:37.601Z,55.77
2019-03-24T19:18:07.502Z,55.87
2019-03-24T19:20:37.226Z,56.42
2019-03-24T19:23:06.891Z,56.84
2019-03-24T19:25:36.573Z,56.62
2019-03-24T19:28:06.598Z,56.97
2019-03-24T19:30:38.939Z,57.01
2019-03-24T19:33:08.733Z,57.05
2019-03-24T19:35:38.595Z,57.26
2019-03-24T19:38:08.459Z,57.25
2019-03-24T19:40:38.158Z,57.64
2019-03-24T19:43:07.958Z,57.81
2019-03-24T19:45:37.704Z,57.98
2019-03-24T19:48:07.529Z,57.77
2019-03-24T19:50:37.255Z,57.33
2019-03-24T19:53:07.022Z,57.58
2019-03-24T19:55:36.682Z,57.84
2019-03-24T19:58:06.379Z,57.90
2019-03-24T20:00:36.194Z,57.83
2019-03-24T20:03:06.248Z,57.85
2019-03-24T20:05:36.027Z,57.46
2019-03-24T20:08:05.920Z,56.94
2019-03-24T20:10:35.615Z,57.44
2019-03-24T20:13:05.422Z,58.16
2019-03-24T20:15:35.140Z,57.75
2019-03-24T20:18:04.915Z,57.08
2019-03-24T20:20:34.565Z,56.90
2019-03-24T20:23:04.262Z,57.57
2019-03-24T20:25:33.908Z,58.33
2019-03-24T20:28:03.565Z,58.64
2019-03-24T20:30:33.191Z,58.15
2019-03-24T20:33:02.855Z,57.48
2019-03-24T20:35:32.497Z,57.51
2019-03-24T20:38:02.149Z,57.65
2019-03-24T20:40:31.779Z,57.61
2019-03-24T20:43:01.426Z,57.64
2019-03-24T20:45:31.056Z,57.67
2019-03-24T20:48:00.720Z,58.92
2019-03-24T20:50:30.641Z,58.51
2019-03-24T20:53:05.653Z,58.56
2019-03-24T20:55:34.263Z,59.15
2019-03-24T20:58:03.116Z,58.83
2019-03-24T21:00:37.422Z,59.95
2019-03-24T21:03:07.570Z,60.18
2019-03-24T21:05:37.640Z,61.04
2019-03-24T21:08:09.075Z,60.72
2019-03-24T21:10:38.800Z,60.88
2019-03-24T21:13:08.568Z,60.03
2019-03-24T21:15:38.290Z,60.70
2019-03-24T21:18:07.929Z,59.88
2019-03-24T21:20:37.585Z,59.97
2019-03-24T21:23:07.278Z,60.75
2019-03-24T21:25:36.952Z,60.44
2019-03-24T21:28:06.644Z,60.56
2019-03-24T21:30:40.074Z,60.23
2019-03-24T21:33:10.203Z,59.84
2019-03-24T21:35:40.011Z,59.74
2019-03-24T21:38:09.733Z,59.02
2019-03-24T21:40:39.365Z,58.55
2019-03-24T21:43:09.090Z,59.06
2019-03-24T21:45:38.722Z,59.43
2019-03-24T21:48:08.371Z,59.68
2019-03-24T21:50:37.992Z,59.64
2019-03-24T21:53:07.716Z,60.07
2019-03-24T21:55:37.357Z,60.17
2019-03-24T21:58:07.140Z,60.09
2019-03-24T22:00:37.876Z,60.04
2019-03-24T22:03:08.073Z,60.41
2019-03-24T22:05:37.840Z,60.64
2019-03-24T22:08:08.139Z,61.03
2019-03-24T22:10:37.913Z,61.50
2019-03-24T22:13:07.559Z,61.64
2019-03-24T22:15:37.182Z,61.75
2019-03-24T22:18:07.043Z,61.47
2019-03-24T22:20:48.259Z,61.78
2019-03-24T22:23:08.134Z,61.83
2019-03-24T22:25:37.764Z,61.81
2019-03-24T22:28:07.456Z,61.78
2019-03-24T22:30:37.181Z,62.00
2019-03-24T22:33:06.809Z,62.05
2019-03-24T22:35:36.467Z,62.13
2019-03-24T22:38:06.233Z,62.15
2019-03-24T22:40:35.959Z,62.38
2019-03-24T22:43:05.733Z,62.13
2019-03-24T22:45:35.458Z,62.34
2019-03-24T22:48:05.091Z,62.27
2019-03-24T22:50:34.742Z,62.34
2019-03-24T22:53:04.507Z,62.62
2019-03-24T22:55:34.163Z,62.46
2019-03-24T22:58:03.863Z,62.81
2019-03-24T23:00:52.999Z,62.93
2019-03-24T23:03:25.143Z,63.31
2019-03-24T23:05:54.713Z,62.84
2019-03-24T23:08:24.407Z,62.87
2019-03-24T23:10:54.133Z,63.38
2019-03-24T23:13:23.750Z,63.00
2019-03-24T23:15:53.404Z,63.04
2019-03-24T23:18:23.038Z,62.90
2019-03-24T23:20:52.693Z,62.50
2019-03-24T23:23:22.325Z,62.66
2019-03-24T23:25:52.058Z,62.66
2019-03-24T23:28:21.682Z,63.09
2019-03-24T23:30:51.400Z,62.95
2019-03-24T23:33:21.056Z,63.00
2019-03-24T23:35:50.715Z,63.11
2019-03-24T23:38:20.417Z,63.02
2019-03-24T23:40:50.065Z,62.96
2019-03-24T23:43:19.772Z,63.01
2019-03-24T23:45:49.437Z,63.26
2019-03-24T23:48:19.136Z,62.87
2019-03-24T23:50:49.205Z,61.59
2019-03-24T23:53:18.870Z,62.19
2019-03-24T23:55:48.492Z,62.20
2019-03-24T23:58:18.151Z,61.75
